Impacts TAF Board
For situational awareness. Not to be used for flight planning purposes.
IDs:

KSAT - San Antonio Intl, TX, US

Issued at 0233 UTC 20 Sep 2020
Updated at 0424 UTC 20 Sep 2020
Potential Impact None Slight Moderate High
Time<<21/05Z 21/06Z 21/07Z 21/08Z 21/09Z 21/10Z 21/11Z 21/12Z 21/13Z 21/14Z 21/15Z 21/16Z 21/17Z
Type PRVL
VIS 5
CIG 28
Cover BKN
FltCat MVFR
WX -SHRA BR VCTS
WDir 30
WSpd 10
WGst --
R04/22
XWnd 2 0 0 0 0 0 0 0 0 0 0 0 0
HWnd 10 0 0 0 0 0 0 0 0 0 0 0 0
R12/30
XWnd 10 0 0 0 0 0 0 0 0 0 0 0 0
HWnd -2 0 0 0 0 0 0 0 0 0 0 0 0
Raw TAF
KSAT 200233Z 2003/2106 02005KT P6SM FEW050
  FM201400 02012G22KT P6SM FEW050 FEW100
  FM202100 02014G24KT P6SM SCT050 BKN100
  PROB30 2023/2104 4SM -SHRA BKN040
  FM210400 03010KT 5SM -SHRA BR VCTS BKN028CB


METAR Board
Radar Display
Forecast Discussion
For situational awareness. Not to be used for flight planning purposes.